createdAt,value
2018-09-15T00:00:59.294Z,16.43
2018-09-15T00:03:29.090Z,16.45
2018-09-15T00:05:57.729Z,16.48
2018-09-15T00:08:26.545Z,16.52
2018-09-15T00:10:55.650Z,16.54
2018-09-15T00:13:24.365Z,16.54
2018-09-15T00:15:53.165Z,16.58
2018-09-15T00:18:22.081Z,16.62
2018-09-15T00:20:50.906Z,16.64
2018-09-15T00:23:19.934Z,16.64
2018-09-15T00:25:49.039Z,16.60
2018-09-15T00:28:17.987Z,16.59
2018-09-15T00:30:46.886Z,16.59
2018-09-15T00:33:15.722Z,16.60
2018-09-15T00:35:44.870Z,16.54
2018-09-15T00:38:14.195Z,16.55
2018-09-15T00:40:42.869Z,16.54
2018-09-15T00:43:11.695Z,16.54
2018-09-15T00:45:40.849Z,16.57
2018-09-15T00:48:09.779Z,16.54
2018-09-15T00:50:39.355Z,16.54
2018-09-15T00:53:08.180Z,16.52
2018-09-15T00:55:37.793Z,16.53
2018-09-15T00:58:06.876Z,16.52
2018-09-15T01:00:36.120Z,16.51
2018-09-15T01:03:05.236Z,16.42
2018-09-15T01:05:34.770Z,16.39
2018-09-15T01:08:03.586Z,16.30
2018-09-15T01:10:32.231Z,16.23
2018-09-15T01:13:01.509Z,16.14
2018-09-15T01:15:30.360Z,16.08
2018-09-15T01:17:59.848Z,16.03
2018-09-15T01:20:28.659Z,15.96
2018-09-15T01:22:58.362Z,15.92
2018-09-15T01:25:27.566Z,15.88
2018-09-15T01:27:56.726Z,15.89
2018-09-15T01:30:25.849Z,15.89
2018-09-15T01:32:54.729Z,15.90
2018-09-15T01:35:23.465Z,15.89
2018-09-15T01:37:52.740Z,15.88
2018-09-15T01:40:21.810Z,15.87
2018-09-15T01:42:51.259Z,15.84
2018-09-15T01:45:20.485Z,15.87
2018-09-15T01:47:49.497Z,15.86
2018-09-15T01:50:18.724Z,15.83
2018-09-15T01:52:48.061Z,15.80
2018-09-15T01:55:17.156Z,15.80
2018-09-15T01:57:46.370Z,15.79
2018-09-15T02:00:15.564Z,15.72
2018-09-15T02:02:45.936Z,15.78
2018-09-15T02:05:14.954Z,15.76
2018-09-15T02:07:44.334Z,15.74
2018-09-15T02:10:13.186Z,15.69
2018-09-15T02:12:41.909Z,15.70
2018-09-15T02:15:10.587Z,15.72
2018-09-15T02:17:39.545Z,15.76
2018-09-15T02:20:08.426Z,15.79
2018-09-15T02:22:37.704Z,15.84
2018-09-15T02:25:06.564Z,15.85
2018-09-15T02:27:35.437Z,15.86
2018-09-15T02:30:04.288Z,15.89
2018-09-15T02:32:33.601Z,15.89
2018-09-15T02:35:02.362Z,15.90
2018-09-15T02:37:31.208Z,15.90
2018-09-15T02:40:00.041Z,15.89
2018-09-15T02:42:28.813Z,15.85
2018-09-15T02:44:57.702Z,15.83
2018-09-15T02:47:27.056Z,15.86
2018-09-15T02:49:56.184Z,15.87
2018-09-15T02:52:24.928Z,15.84
2018-09-15T02:54:53.636Z,15.81
2018-09-15T02:57:22.451Z,15.74
2018-09-15T02:59:51.788Z,15.76
2018-09-15T03:02:20.396Z,15.74
2018-09-15T03:04:49.252Z,15.77
2018-09-15T03:07:17.915Z,15.76
2018-09-15T03:09:47.055Z,15.77
2018-09-15T03:12:16.810Z,15.73
2018-09-15T03:14:46.401Z,15.73
2018-09-15T03:17:15.920Z,15.69
2018-09-15T03:19:44.656Z,15.67
2018-09-15T03:22:13.972Z,15.66
2018-09-15T03:24:42.735Z,15.66
2018-09-15T03:27:11.543Z,15.65
2018-09-15T03:29:40.751Z,15.63
2018-09-15T03:32:09.579Z,15.63
2018-09-15T03:34:39.353Z,15.65
2018-09-15T03:37:08.290Z,15.65
2018-09-15T03:39:36.881Z,15.65
2018-09-15T03:42:05.822Z,15.66
2018-09-15T03:44:35.351Z,15.66
2018-09-15T03:47:04.322Z,15.68
2018-09-15T03:49:33.309Z,15.69
2018-09-15T03:52:02.071Z,15.70
2018-09-15T03:54:31.448Z,15.72
2018-09-15T03:57:00.306Z,15.74
2018-09-15T03:59:31.056Z,15.72
2018-09-15T04:02:00.972Z,15.72
2018-09-15T04:04:29.962Z,15.72
2018-09-15T04:06:58.571Z,15.71
2018-09-15T04:09:29.006Z,15.72
2018-09-15T04:11:57.933Z,15.70
2018-09-15T04:14:27.431Z,15.70
2018-09-15T04:16:56.897Z,15.67
2018-09-15T04:19:25.847Z,15.66
2018-09-15T04:21:54.844Z,15.67
2018-09-15T04:24:23.718Z,15.67
2018-09-15T04:26:52.887Z,15.67
2018-09-15T04:29:22.227Z,15.67
2018-09-15T04:31:51.408Z,15.65
2018-09-15T04:34:20.505Z,15.64
2018-09-15T04:36:50.083Z,15.62
2018-09-15T04:39:18.952Z,15.58
2018-09-15T04:41:47.731Z,15.56
2018-09-15T04:44:16.453Z,15.55
2018-09-15T04:46:45.607Z,15.49
2018-09-15T04:49:14.745Z,15.54
2018-09-15T04:51:43.331Z,15.59
2018-09-15T04:54:13.401Z,15.59
2018-09-15T04:56:42.611Z,15.61
2018-09-15T04:59:11.851Z,15.59
2018-09-15T05:01:40.502Z,15.59
2018-09-15T05:04:09.476Z,15.59
2018-09-15T05:06:38.857Z,15.58
2018-09-15T05:09:10.821Z,15.57
2018-09-15T05:11:39.812Z,15.57
2018-09-15T05:14:09.335Z,15.55
2018-09-15T05:16:38.198Z,15.55
2018-09-15T05:19:07.666Z,15.56
2018-09-15T05:21:36.692Z,15.58
2018-09-15T05:24:06.048Z,15.57
2018-09-15T05:26:35.238Z,15.58
2018-09-15T05:29:04.081Z,15.53
2018-09-15T05:31:32.783Z,15.52
2018-09-15T05:34:01.498Z,15.53
2018-09-15T05:36:30.231Z,15.56
2018-09-15T05:38:59.528Z,15.59
2018-09-15T05:41:28.497Z,15.66
2018-09-15T05:43:57.154Z,15.73
2018-09-15T05:46:26.158Z,15.73
2018-09-15T05:48:54.837Z,15.80
2018-09-15T05:51:23.677Z,15.87
2018-09-15T05:53:52.668Z,15.92
2018-09-15T05:56:21.280Z,15.95
2018-09-15T05:58:50.222Z,16.01
2018-09-15T06:01:19.349Z,16.09
2018-09-15T06:03:48.760Z,16.21
2018-09-15T06:06:17.517Z,16.45
2018-09-15T06:08:46.407Z,16.65
2018-09-15T06:11:15.121Z,16.82
2018-09-15T06:13:44.785Z,17.18
2018-09-15T06:16:13.792Z,17.58
2018-09-15T06:18:42.933Z,18.08
2018-09-15T06:21:12.216Z,18.21
2018-09-15T06:23:41.214Z,18.36
2018-09-15T06:26:12.492Z,18.36
2018-09-15T06:28:41.528Z,18.28
2018-09-15T06:31:10.357Z,18.12
2018-09-15T06:33:39.346Z,18.26
2018-09-15T06:36:08.753Z,18.23
2018-09-15T06:38:37.794Z,18.32
2018-09-15T06:41:06.795Z,18.23
2018-09-15T06:43:35.851Z,18.22
2018-09-15T06:46:05.587Z,18.56
2018-09-15T06:48:34.247Z,18.95
2018-09-15T06:51:03.546Z,19.10
2018-09-15T06:53:32.612Z,19.19
2018-09-15T06:56:01.497Z,19.86
2018-09-15T06:58:30.473Z,20.86
2018-09-15T07:00:59.508Z,21.10
2018-09-15T07:03:28.394Z,22.20
2018-09-15T07:05:57.408Z,22.42
2018-09-15T07:08:26.123Z,23.32
2018-09-15T07:10:55.548Z,23.71
2018-09-15T07:13:24.556Z,23.99
2018-09-15T07:15:53.553Z,24.22
2018-09-15T07:18:22.351Z,25.12
2018-09-15T07:20:52.012Z,24.88
2018-09-15T07:23:20.809Z,24.93
2018-09-15T07:25:49.967Z,25.78
2018-09-15T07:28:19.378Z,26.27
2018-09-15T07:30:48.512Z,26.32
2018-09-15T07:33:17.444Z,27.11
2018-09-15T07:35:46.883Z,27.65
2018-09-15T07:38:15.974Z,27.86
2018-09-15T07:40:44.712Z,27.99
2018-09-15T07:43:13.723Z,27.91
2018-09-15T07:45:42.852Z,27.07
2018-09-15T07:48:12.199Z,27.48
2018-09-15T07:50:41.314Z,28.32
2018-09-15T07:53:10.758Z,28.90
2018-09-15T07:55:40.648Z,29.43
2018-09-15T07:58:09.956Z,30.30
2018-09-15T08:00:39.253Z,30.04
2018-09-15T08:03:08.413Z,31.07
2018-09-15T08:05:38.401Z,31.46
2018-09-15T08:08:07.869Z,31.38
2018-09-15T08:10:36.778Z,32.17
2018-09-15T08:13:05.515Z,32.47
2018-09-15T08:15:34.550Z,33.19
2018-09-15T08:18:04.399Z,34.32
2018-09-15T08:20:33.160Z,34.84
2018-09-15T08:23:02.164Z,33.70
2018-09-15T08:25:31.394Z,34.01
2018-09-15T08:28:02.614Z,34.61
2018-09-15T08:30:31.475Z,34.67
2018-09-15T08:33:00.393Z,34.20
2018-09-15T08:35:29.449Z,34.86
2018-09-15T08:37:58.743Z,35.88
2018-09-15T08:40:27.744Z,35.34
2018-09-15T08:42:58.237Z,36.79
2018-09-15T08:45:27.999Z,37.25
2018-09-15T08:47:57.295Z,37.70
2018-09-15T08:50:26.163Z,38.27
2018-09-15T08:52:55.078Z,38.69
2018-09-15T08:55:24.045Z,38.50
2018-09-15T08:57:53.068Z,37.28
2018-09-15T09:00:22.021Z,37.45
2018-09-15T09:02:50.813Z,37.76
2018-09-15T09:05:19.558Z,37.38
2018-09-15T09:07:49.199Z,36.37
2018-09-15T09:10:18.841Z,35.33
2018-09-15T09:12:47.562Z,33.86
2018-09-15T09:15:17.742Z,33.04
2018-09-15T09:17:46.944Z,31.76
2018-09-15T09:20:15.879Z,32.47
2018-09-15T09:22:44.647Z,32.61
2018-09-15T09:25:13.757Z,31.55
2018-09-15T09:27:42.498Z,30.40
2018-09-15T09:30:12.125Z,29.33
2018-09-15T09:32:41.448Z,30.71
2018-09-15T09:35:10.570Z,32.11
2018-09-15T09:37:39.509Z,34.45
2018-09-15T09:40:08.397Z,34.88
2018-09-15T09:42:37.307Z,34.23
2018-09-15T09:45:07.533Z,33.17
2018-09-15T09:47:36.391Z,31.28
2018-09-15T09:50:06.084Z,30.07
2018-09-15T09:52:34.754Z,29.44
2018-09-15T09:55:03.774Z,28.99
2018-09-15T09:57:32.533Z,28.44
2018-09-15T10:00:01.411Z,28.39
2018-09-15T10:02:30.340Z,29.54
2018-09-15T10:04:59.291Z,31.62
2018-09-15T10:07:28.395Z,32.11
2018-09-15T10:09:57.800Z,31.61
2018-09-15T10:12:26.890Z,31.19
2018-09-15T10:14:56.342Z,29.65
2018-09-15T10:17:25.234Z,30.10
2018-09-15T10:19:54.933Z,31.51
2018-09-15T10:22:23.791Z,31.78
2018-09-15T10:24:52.643Z,30.66
2018-09-15T10:27:21.505Z,30.39
2018-09-15T10:29:50.689Z,32.30
2018-09-15T10:32:19.972Z,32.12
2018-09-15T10:34:48.954Z,33.20
2018-09-15T10:37:18.313Z,33.21
2018-09-15T10:39:48.498Z,33.49
2018-09-15T10:42:17.714Z,33.05
2018-09-15T10:44:46.895Z,33.09
2018-09-15T10:47:15.755Z,32.41
2018-09-15T10:49:44.562Z,31.78
2018-09-15T10:52:13.741Z,31.24
2018-09-15T10:54:42.774Z,30.46
2018-09-15T10:57:11.644Z,30.01
2018-09-15T10:59:40.406Z,30.16
2018-09-15T11:02:12.999Z,29.63
2018-09-15T11:04:43.590Z,28.58
2018-09-15T11:07:12.920Z,28.68
2018-09-15T11:09:42.196Z,28.95
2018-09-15T11:12:11.970Z,28.57
2018-09-15T11:14:40.623Z,28.30
2018-09-15T11:17:09.756Z,28.17
2018-09-15T11:19:39.824Z,28.67
2018-09-15T11:22:08.675Z,28.99
2018-09-15T11:24:37.390Z,29.20
2018-09-15T11:27:06.724Z,29.00
2018-09-15T11:29:35.734Z,28.41
2018-09-15T11:32:05.024Z,28.11
2018-09-15T11:34:34.465Z,28.00
2018-09-15T11:37:03.562Z,27.80
2018-09-15T11:39:32.538Z,27.97
2018-09-15T11:42:01.844Z,28.00
2018-09-15T11:44:31.144Z,27.84
2018-09-15T11:47:00.342Z,27.86
2018-09-15T11:49:29.249Z,27.70
2018-09-15T11:51:58.308Z,27.98
2018-09-15T11:54:27.583Z,27.80
2018-09-15T11:56:56.394Z,27.52
2018-09-15T11:59:25.324Z,26.95
2018-09-15T12:01:54.797Z,26.26
2018-09-15T12:04:23.944Z,25.76
2018-09-15T12:06:53.316Z,25.74
2018-09-15T12:09:23.457Z,25.37
2018-09-15T12:11:52.495Z,25.48
2018-09-15T12:14:21.772Z,25.79
2018-09-15T12:16:50.901Z,26.14
2018-09-15T12:19:19.875Z,26.35
2018-09-15T12:21:48.602Z,26.29
2018-09-15T12:24:17.375Z,26.42
2018-09-15T12:26:46.251Z,26.33
2018-09-15T12:29:15.084Z,26.48
2018-09-15T12:31:44.376Z,26.20
2018-09-15T12:34:13.541Z,26.27
2018-09-15T12:36:42.810Z,26.18
2018-09-15T12:39:12.585Z,26.01
2018-09-15T12:41:41.517Z,25.86
2018-09-15T12:44:11.061Z,25.68
2018-09-15T12:46:40.804Z,25.35
2018-09-15T12:49:09.589Z,25.28
2018-09-15T12:51:39.164Z,25.17
2018-09-15T12:54:08.515Z,25.20
2018-09-15T12:56:37.661Z,24.81
2018-09-15T12:59:06.741Z,24.89
2018-09-15T13:01:35.945Z,24.66
2018-09-15T13:04:05.570Z,24.88
2018-09-15T13:06:34.453Z,25.08
2018-09-15T13:09:05.240Z,25.11
2018-09-15T13:11:34.843Z,25.09
2018-09-15T13:14:03.799Z,25.04
2018-09-15T13:16:32.556Z,25.06
2018-09-15T13:19:02.674Z,25.07
2018-09-15T13:21:31.831Z,25.09
2018-09-15T13:24:01.524Z,25.04
2018-09-15T13:26:31.345Z,25.03
2018-09-15T13:29:00.732Z,24.99
2018-09-15T13:31:29.931Z,24.85
2018-09-15T13:33:58.890Z,24.47
2018-09-15T13:36:28.100Z,24.29
2018-09-15T13:38:57.162Z,24.23
2018-09-15T13:41:26.091Z,24.27
2018-09-15T13:43:55.101Z,24.23
2018-09-15T13:46:23.974Z,24.17
2018-09-15T13:48:53.139Z,24.24
2018-09-15T13:51:22.057Z,24.28
2018-09-15T13:53:50.857Z,24.44
2018-09-15T13:56:19.897Z,24.50
2018-09-15T13:58:49.139Z,24.42
2018-09-15T14:01:18.467Z,24.39
2018-09-15T14:03:47.470Z,24.26
2018-09-15T14:06:16.586Z,24.14
2018-09-15T14:08:45.946Z,23.98
2018-09-15T14:11:15.237Z,23.83
2018-09-15T14:13:44.174Z,23.84
2018-09-15T14:16:13.269Z,23.86
2018-09-15T14:18:43.032Z,23.93
2018-09-15T14:21:12.151Z,23.85
2018-09-15T14:23:41.553Z,23.87
2018-09-15T14:26:10.586Z,23.82
2018-09-15T14:28:39.744Z,23.75
2018-09-15T14:31:08.807Z,23.68
2018-09-15T14:33:37.547Z,23.57
2018-09-15T14:36:06.435Z,23.44
2018-09-15T14:38:35.736Z,23.29
2018-09-15T14:41:05.031Z,23.26
2018-09-15T14:43:34.239Z,23.30
2018-09-15T14:46:03.321Z,23.17
2018-09-15T14:48:32.242Z,23.23
2018-09-15T14:51:00.996Z,23.19
2018-09-15T14:53:29.957Z,22.83
2018-09-15T14:55:59.192Z,22.97
2018-09-15T14:58:28.422Z,22.94
2018-09-15T15:00:57.166Z,22.94
2018-09-15T15:03:26.104Z,22.81
2018-09-15T15:05:54.971Z,22.72
2018-09-15T15:08:24.076Z,22.64
2018-09-15T15:10:53.659Z,22.61
2018-09-15T15:13:22.657Z,22.63
2018-09-15T15:15:51.780Z,22.65
2018-09-15T15:18:20.606Z,22.63
2018-09-15T15:20:49.315Z,22.60
2018-09-15T15:23:18.102Z,22.51
2018-09-15T15:25:46.989Z,22.43
2018-09-15T15:28:16.164Z,22.35
2018-09-15T15:30:45.168Z,22.36
2018-09-15T15:33:13.891Z,22.36
2018-09-15T15:35:43.577Z,22.30
2018-09-15T15:38:12.414Z,22.22
2018-09-15T15:40:41.232Z,22.06
2018-09-15T15:43:10.490Z,22.08
2018-09-15T15:45:39.837Z,22.01
2018-09-15T15:48:08.660Z,21.98
2018-09-15T15:50:38.281Z,22.00
2018-09-15T15:53:07.506Z,21.98
2018-09-15T15:55:36.683Z,21.92
2018-09-15T15:58:05.466Z,21.86
2018-09-15T16:00:34.344Z,21.82
2018-09-15T16:03:03.180Z,21.75
2018-09-15T16:05:32.264Z,21.74
2018-09-15T16:08:01.872Z,21.69
2018-09-15T16:10:30.851Z,21.70
2018-09-15T16:12:59.861Z,21.69
2018-09-15T16:15:29.491Z,21.67
2018-09-15T16:17:58.294Z,21.60
2018-09-15T16:20:28.016Z,21.51
2018-09-15T16:22:57.067Z,21.44
2018-09-15T16:25:26.477Z,21.39
2018-09-15T16:27:55.472Z,21.31
2018-09-15T16:30:24.994Z,21.11
2018-09-15T16:32:53.709Z,21.05
2018-09-15T16:35:23.514Z,20.96
2018-09-15T16:37:52.673Z,20.87
2018-09-15T16:40:21.725Z,20.83
2018-09-15T16:42:50.875Z,20.75
2018-09-15T16:45:20.155Z,20.65
2018-09-15T16:47:49.060Z,20.60
2018-09-15T16:50:17.981Z,20.47
2018-09-15T16:52:47.015Z,20.40
2018-09-15T16:55:15.928Z,20.28
2018-09-15T16:57:44.887Z,20.18
2018-09-15T17:00:14.437Z,20.14
2018-09-15T17:02:43.370Z,20.16
2018-09-15T17:05:13.136Z,20.09
2018-09-15T17:07:42.057Z,20.10
2018-09-15T17:10:11.499Z,20.09
2018-09-15T17:12:41.265Z,19.97
2018-09-15T17:15:10.826Z,19.92
2018-09-15T17:17:39.641Z,19.87
2018-09-15T17:20:08.407Z,19.79
2018-09-15T17:22:37.499Z,19.74
2018-09-15T17:25:06.755Z,19.67
2018-09-15T17:27:35.951Z,19.59
2018-09-15T17:30:04.847Z,19.49
2018-09-15T17:32:34.033Z,19.30
2018-09-15T17:35:03.780Z,19.20
2018-09-15T17:37:32.797Z,19.05
2018-09-15T17:40:02.155Z,19.02
2018-09-15T17:42:31.142Z,18.95
2018-09-15T17:45:00.638Z,18.84
2018-09-15T17:47:29.798Z,18.76
2018-09-15T17:49:59.040Z,18.65
2018-09-15T17:52:28.091Z,18.63
2018-09-15T17:54:57.247Z,18.52
2018-09-15T17:57:26.652Z,18.43
2018-09-15T17:59:55.484Z,18.42
2018-09-15T18:02:24.826Z,18.28
2018-09-15T18:04:54.407Z,18.22
2018-09-15T18:07:23.553Z,18.14
2018-09-15T18:09:52.811Z,18.00
2018-09-15T18:12:24.370Z,17.82
2018-09-15T18:14:53.338Z,17.61
2018-09-15T18:17:22.335Z,17.42
2018-09-15T18:19:52.621Z,17.30
2018-09-15T18:22:21.767Z,17.21
2018-09-15T18:24:50.626Z,17.11
2018-09-15T18:27:20.246Z,17.07
2018-09-15T18:29:49.472Z,16.92
2018-09-15T18:32:18.925Z,16.77
2018-09-15T18:34:47.840Z,16.58
2018-09-15T18:37:16.721Z,16.44
2018-09-15T18:39:45.502Z,16.44
2018-09-15T18:42:14.623Z,16.36
2018-09-15T18:44:43.846Z,16.31
2018-09-15T18:47:12.692Z,16.26
2018-09-15T18:49:41.411Z,16.24
2018-09-15T18:52:10.624Z,16.11
2018-09-15T18:54:40.088Z,15.96
2018-09-15T18:57:09.042Z,15.89
2018-09-15T18:59:38.821Z,15.79
2018-09-15T19:02:07.596Z,15.65
2018-09-15T19:04:36.566Z,15.53
2018-09-15T19:07:05.862Z,15.44
2018-09-15T19:09:34.558Z,15.44
2018-09-15T19:12:03.297Z,15.28
2018-09-15T19:14:32.722Z,15.10
2018-09-15T19:17:01.810Z,15.19
2018-09-15T19:19:31.597Z,15.16
2018-09-15T19:22:01.271Z,14.99
2018-09-15T19:24:30.452Z,15.01
2018-09-15T19:26:59.488Z,14.92
2018-09-15T19:29:29.893Z,14.88
2018-09-15T19:31:58.951Z,14.75
2018-09-15T19:34:28.351Z,14.66
2018-09-15T19:36:58.149Z,14.57
2018-09-15T19:39:27.303Z,14.53
2018-09-15T19:41:56.877Z,14.47
2018-09-15T19:44:26.002Z,14.26
2018-09-15T19:46:55.361Z,13.95
2018-09-15T19:49:24.553Z,13.93
2018-09-15T19:51:53.807Z,14.01
2018-09-15T19:54:22.938Z,14.01
2018-09-15T19:56:52.578Z,13.94
2018-09-15T19:59:21.523Z,13.89
2018-09-15T20:01:50.642Z,13.82
2018-09-15T20:04:19.988Z,13.66
2018-09-15T20:06:49.183Z,13.63
2018-09-15T20:09:18.427Z,13.69
2018-09-15T20:11:47.673Z,13.70
2018-09-15T20:14:16.726Z,13.66
2018-09-15T20:16:44.166Z,13.58
2018-09-15T20:19:11.577Z,13.29
2018-09-15T20:21:38.972Z,12.85
2018-09-15T20:24:08.117Z,12.94
2018-09-15T20:26:37.093Z,12.82
2018-09-15T20:29:06.266Z,12.57
2018-09-15T20:31:35.703Z,12.59
2018-09-15T20:34:04.674Z,12.61
2018-09-15T20:36:33.700Z,12.57
2018-09-15T20:39:02.625Z,12.57
2018-09-15T20:41:31.412Z,12.46
2018-09-15T20:44:00.543Z,12.29
2018-09-15T20:46:29.402Z,12.30
2018-09-15T20:48:58.617Z,12.35
2018-09-15T20:51:28.396Z,12.42
2018-09-15T20:53:58.502Z,12.40
2018-09-15T20:56:27.612Z,12.35
2018-09-15T20:58:57.350Z,12.28
2018-09-15T21:01:26.498Z,12.25
2018-09-15T21:03:55.537Z,12.30
2018-09-15T21:06:24.534Z,12.19
2018-09-15T21:08:54.952Z,12.19
2018-09-15T21:11:24.003Z,12.07
2018-09-15T21:13:53.313Z,12.12
2018-09-15T21:16:22.523Z,11.98
2018-09-15T21:18:52.292Z,11.96
2018-09-15T21:21:21.379Z,11.95
2018-09-15T21:23:50.347Z,11.87
2018-09-15T21:26:19.324Z,11.63
2018-09-15T21:28:48.606Z,11.59
2018-09-15T21:31:17.829Z,11.72
2018-09-15T21:33:46.984Z,11.75
2018-09-15T21:36:16.221Z,11.59
2018-09-15T21:38:45.204Z,11.63
2018-09-15T21:41:13.932Z,11.48
2018-09-15T21:43:43.333Z,11.54
2018-09-15T21:46:12.093Z,11.63
2018-09-15T21:48:41.236Z,11.57
2018-09-15T21:51:10.429Z,11.53
2018-09-15T21:53:39.843Z,11.53
2018-09-15T21:56:08.585Z,11.50
2018-09-15T21:58:37.955Z,11.29
2018-09-15T22:01:07.526Z,11.26
2018-09-15T22:03:41.417Z,11.30
2018-09-15T22:06:10.116Z,11.15
2018-09-15T22:08:38.973Z,11.04
2018-09-15T22:11:07.899Z,11.11
2018-09-15T22:13:36.591Z,11.19
2018-09-15T22:16:05.733Z,11.04
2018-09-15T22:18:34.869Z,11.06
2018-09-15T22:21:03.738Z,11.08
2018-09-15T22:23:33.326Z,11.08
2018-09-15T22:26:02.212Z,11.16
2018-09-15T22:28:31.693Z,11.12
2018-09-15T22:31:01.042Z,11.04
2018-09-15T22:33:31.298Z,11.03
2018-09-15T22:36:00.744Z,11.02
2018-09-15T22:38:29.587Z,11.00
2018-09-15T22:40:58.216Z,10.99
2018-09-15T22:43:27.062Z,10.93
2018-09-15T22:45:56.603Z,10.86
2018-09-15T22:48:25.577Z,10.75
2018-09-15T22:50:54.696Z,10.77
2018-09-15T22:53:23.914Z,10.64
2018-09-15T22:55:53.298Z,10.50
2018-09-15T22:58:22.094Z,10.55
2018-09-15T23:00:50.789Z,10.55
2018-09-15T23:03:20.019Z,10.53
2018-09-15T23:05:48.734Z,10.52
2018-09-15T23:08:18.406Z,10.59
2018-09-15T23:10:47.537Z,10.56
2018-09-15T23:13:16.716Z,10.55
2018-09-15T23:15:46.208Z,10.59
2018-09-15T23:18:15.317Z,10.64
2018-09-15T23:20:44.069Z,10.63
2018-09-15T23:23:13.687Z,10.44
2018-09-15T23:25:42.573Z,10.34
2018-09-15T23:28:11.348Z,10.36
2018-09-15T23:30:40.375Z,10.25
2018-09-15T23:33:09.674Z,10.31
2018-09-15T23:35:38.738Z,10.29
2018-09-15T23:38:08.036Z,10.34
2018-09-15T23:40:36.913Z,10.07
2018-09-15T23:43:06.501Z,9.96
2018-09-15T23:45:35.638Z,10.00
2018-09-15T23:48:04.624Z,9.89
2018-09-15T23:50:34.079Z,9.76
2018-09-15T23:53:02.963Z,9.73
2018-09-15T23:55:32.252Z,9.78
2018-09-15T23:58:01.939Z,9.85
